createdAt,value
2023-07-09T00:00:24.253Z,0.00
2023-07-09T00:01:24.293Z,0.00
2023-07-09T00:02:24.267Z,0.00
2023-07-09T00:03:24.240Z,0.00
2023-07-09T00:04:24.282Z,0.00
2023-07-09T00:05:24.212Z,0.00
2023-07-09T00:06:24.175Z,0.00
2023-07-09T00:07:24.201Z,0.00
2023-07-09T00:08:24.189Z,0.00
2023-07-09T00:09:24.990Z,0.00
2023-07-09T00:10:24.173Z,0.00
2023-07-09T00:11:24.657Z,0.00
2023-07-09T00:12:24.127Z,0.00
2023-07-09T00:13:24.168Z,0.00
2023-07-09T00:14:24.870Z,0.00
2023-07-09T00:15:24.092Z,0.00
2023-07-09T00:16:24.197Z,0.00
2023-07-09T00:17:24.144Z,0.00
2023-07-09T00:18:24.061Z,0.00
2023-07-09T00:19:24.039Z,0.00
2023-07-09T00:20:24.652Z,0.00
2023-07-09T00:21:25.200Z,0.00
2023-07-09T00:22:24.015Z,0.00
2023-07-09T00:23:23.988Z,0.00
2023-07-09T00:24:24.034Z,0.00
2023-07-09T00:25:24.845Z,0.00
2023-07-09T00:26:24.016Z,0.00
2023-07-09T00:27:23.938Z,0.00
2023-07-09T00:28:23.948Z,0.00
2023-07-09T00:29:23.932Z,0.00
2023-07-09T00:30:24.074Z,0.00
2023-07-09T00:31:24.683Z,0.00
2023-07-09T00:32:23.983Z,0.00
2023-07-09T00:33:23.873Z,0.00
2023-07-09T00:34:23.878Z,0.00
2023-07-09T00:35:23.851Z,0.00
2023-07-09T00:36:23.871Z,0.00
2023-07-09T00:37:23.828Z,0.00
2023-07-09T00:38:23.870Z,0.00
2023-07-09T00:39:23.823Z,0.00
2023-07-09T00:40:23.855Z,0.00
2023-07-09T00:41:23.778Z,0.00
2023-07-09T00:42:23.794Z,0.00
2023-07-09T00:43:23.758Z,0.00
2023-07-09T00:44:23.774Z,0.00
2023-07-09T00:45:23.750Z,0.00
2023-07-09T00:46:23.870Z,0.00
2023-07-09T00:47:23.750Z,0.00
2023-07-09T00:48:23.722Z,0.00
2023-07-09T00:49:23.735Z,0.00
2023-07-09T00:50:23.718Z,0.00
2023-07-09T00:51:23.709Z,0.00
2023-07-09T00:52:23.801Z,0.00
2023-07-09T00:53:24.529Z,0.00
2023-07-09T00:54:23.656Z,0.00
2023-07-09T00:55:24.326Z,0.00
2023-07-09T00:56:23.641Z,0.00
2023-07-09T00:57:23.599Z,0.00
2023-07-09T00:58:24.364Z,0.00
2023-07-09T00:59:23.660Z,0.00
2023-07-09T01:00:23.620Z,0.00
2023-07-09T01:01:23.612Z,0.00
2023-07-09T01:02:23.612Z,0.00
2023-07-09T01:03:23.550Z,0.00
2023-07-09T01:04:23.555Z,0.00
2023-07-09T01:05:23.530Z,0.00
2023-07-09T01:06:23.515Z,0.00
2023-07-09T01:07:23.486Z,0.00
2023-07-09T01:08:23.554Z,0.00
2023-07-09T01:09:24.325Z,0.00
2023-07-09T01:10:23.498Z,0.00
2023-07-09T01:11:23.445Z,0.00
2023-07-09T01:12:23.454Z,0.00
2023-07-09T01:13:23.435Z,0.00
2023-07-09T01:14:23.433Z,0.00
2023-07-09T01:15:23.414Z,0.00
2023-07-09T01:16:23.427Z,0.00
2023-07-09T01:17:23.424Z,0.00
2023-07-09T01:18:23.404Z,0.00
2023-07-09T01:19:23.354Z,0.00
2023-07-09T01:20:24.173Z,0.00
2023-07-09T01:21:23.384Z,0.00
2023-07-09T01:22:23.350Z,0.00
2023-07-09T01:23:23.298Z,0.00
2023-07-09T01:24:23.312Z,0.00
2023-07-09T01:25:23.294Z,0.00
2023-07-09T01:26:23.296Z,0.00
2023-07-09T01:27:23.261Z,0.00
2023-07-09T01:28:23.276Z,0.00
2023-07-09T01:29:23.253Z,0.00
2023-07-09T01:30:23.248Z,0.00
2023-07-09T01:31:23.301Z,0.00
2023-07-09T01:32:23.239Z,0.00
2023-07-09T01:33:23.196Z,0.00
2023-07-09T01:34:23.239Z,0.00
2023-07-09T01:35:23.179Z,0.00
2023-07-09T01:36:23.574Z,0.00
2023-07-09T01:37:23.165Z,0.00
2023-07-09T01:38:23.168Z,0.00
2023-07-09T01:39:23.148Z,0.00
2023-07-09T01:40:31.174Z,0.00
2023-07-09T01:41:24.107Z,0.00
2023-07-09T01:42:23.437Z,0.00
2023-07-09T01:43:23.112Z,0.00
2023-07-09T01:44:23.097Z,0.00
2023-07-09T01:45:23.078Z,0.00
2023-07-09T01:46:23.068Z,0.00
2023-07-09T01:47:23.165Z,0.00
2023-07-09T01:48:23.043Z,0.00
2023-07-09T01:49:23.022Z,0.00
2023-07-09T01:50:23.034Z,0.00
2023-07-09T01:51:22.995Z,0.00
2023-07-09T01:52:23.052Z,0.00
2023-07-09T01:53:23.023Z,0.00
2023-07-09T01:54:22.996Z,0.00
2023-07-09T01:55:22.948Z,0.00
2023-07-09T01:56:22.954Z,0.00
2023-07-09T01:57:22.933Z,0.00
2023-07-09T01:58:22.944Z,0.00
2023-07-09T01:59:22.923Z,0.00
2023-07-09T02:00:22.913Z,0.00
2023-07-09T02:01:22.924Z,0.00
2023-07-09T02:02:22.958Z,0.00
2023-07-09T02:03:22.855Z,0.00
2023-07-09T02:04:22.888Z,0.00
2023-07-09T02:05:22.828Z,0.00
2023-07-09T02:06:22.858Z,0.00
2023-07-09T02:07:22.824Z,0.00
2023-07-09T02:08:22.826Z,0.00
2023-07-09T02:09:22.879Z,0.00
2023-07-09T02:10:23.001Z,0.00
2023-07-09T02:11:22.779Z,0.00
2023-07-09T02:12:22.783Z,0.00
2023-07-09T02:13:22.935Z,0.00
2023-07-09T02:14:22.764Z,0.00
2023-07-09T02:15:22.754Z,0.00
2023-07-09T02:16:22.774Z,0.00
2023-07-09T02:17:22.854Z,0.00
2023-07-09T02:18:22.710Z,0.00
2023-07-09T02:19:22.753Z,0.00
2023-07-09T02:20:22.688Z,0.00
2023-07-09T02:21:22.653Z,0.00
2023-07-09T02:22:22.674Z,0.00
2023-07-09T02:23:22.634Z,0.00
2023-07-09T02:24:22.648Z,0.00
2023-07-09T02:25:22.617Z,0.00
2023-07-09T02:26:22.663Z,0.00
2023-07-09T02:27:22.585Z,0.00
2023-07-09T02:28:22.596Z,0.00
2023-07-09T02:29:22.565Z,0.00
2023-07-09T02:30:22.571Z,0.00
2023-07-09T02:31:22.608Z,0.00
2023-07-09T02:32:22.577Z,0.00
2023-07-09T02:33:22.528Z,0.00
2023-07-09T02:34:22.662Z,0.00
2023-07-09T02:35:22.507Z,0.00
2023-07-09T02:36:22.533Z,0.00
2023-07-09T02:37:22.560Z,0.00
2023-07-09T02:38:22.501Z,0.00
2023-07-09T02:39:22.469Z,0.00
2023-07-09T02:40:22.461Z,0.00
2023-07-09T02:41:22.460Z,0.00
2023-07-09T02:42:22.448Z,0.00
2023-07-09T02:43:22.423Z,0.00
2023-07-09T02:44:22.427Z,0.00
2023-07-09T02:45:22.386Z,0.00
2023-07-09T02:46:22.404Z,0.00
2023-07-09T02:47:22.490Z,0.00
2023-07-09T02:48:22.409Z,0.00
2023-07-09T02:49:22.345Z,0.00
2023-07-09T02:50:22.372Z,4.00
2023-07-09T02:51:22.319Z,4.00
2023-07-09T02:52:22.339Z,4.00
2023-07-09T02:53:22.301Z,0.00
2023-07-09T02:54:22.484Z,0.00
2023-07-09T02:55:22.277Z,4.00
2023-07-09T02:56:22.297Z,4.00
2023-07-09T02:57:22.247Z,4.00
2023-07-09T02:58:22.293Z,4.00
2023-07-09T02:59:22.221Z,4.00
2023-07-09T03:00:22.245Z,8.00
2023-07-09T03:01:22.261Z,4.00
2023-07-09T03:02:22.318Z,8.00
2023-07-09T03:03:22.302Z,8.00
2023-07-09T03:04:22.195Z,12.00
2023-07-09T03:05:22.159Z,12.00
2023-07-09T03:06:22.171Z,12.00
2023-07-09T03:07:22.141Z,16.00
2023-07-09T03:08:22.160Z,12.00
2023-07-09T03:09:22.120Z,16.00
2023-07-09T03:10:22.127Z,16.00
2023-07-09T03:11:22.090Z,24.00
2023-07-09T03:12:22.116Z,24.00
2023-07-09T03:13:22.083Z,28.00
2023-07-09T03:14:22.115Z,28.00
2023-07-09T03:15:22.309Z,32.00
2023-07-09T03:16:22.081Z,36.00
2023-07-09T03:17:22.061Z,40.00
2023-07-09T03:18:22.046Z,44.00
2023-07-09T03:19:22.030Z,48.00
2023-07-09T03:20:22.028Z,48.00
2023-07-09T03:21:22.025Z,52.00
2023-07-09T03:22:22.022Z,56.00
2023-07-09T03:23:21.969Z,64.00
2023-07-09T03:24:22.009Z,68.00
2023-07-09T03:25:22.268Z,68.00
2023-07-09T03:26:21.969Z,76.00
2023-07-09T03:27:21.919Z,80.00
2023-07-09T03:28:21.940Z,84.00
2023-07-09T03:29:21.895Z,92.00
2023-07-09T03:30:21.958Z,96.00
2023-07-09T03:31:21.956Z,100.00
2023-07-09T03:32:21.923Z,112.00
2023-07-09T03:33:21.859Z,116.00
2023-07-09T03:34:21.870Z,124.00
2023-07-09T03:35:22.611Z,136.00
2023-07-09T03:36:22.774Z,144.00
2023-07-09T03:37:21.842Z,156.00
2023-07-09T03:38:22.032Z,164.00
2023-07-09T03:39:21.781Z,172.00
2023-07-09T03:40:21.802Z,184.00
2023-07-09T03:41:21.772Z,200.00
2023-07-09T03:42:21.773Z,208.00
2023-07-09T03:43:21.744Z,220.00
2023-07-09T03:44:21.773Z,232.00
2023-07-09T03:45:21.724Z,248.00
2023-07-09T03:46:21.817Z,260.00
2023-07-09T03:47:21.773Z,272.00
2023-07-09T03:48:21.785Z,292.00
2023-07-09T03:49:21.673Z,304.00
2023-07-09T03:50:21.698Z,320.00
2023-07-09T03:51:21.656Z,336.00
2023-07-09T03:52:21.676Z,352.00
2023-07-09T03:53:21.631Z,364.00
2023-07-09T03:54:21.651Z,380.00
2023-07-09T03:55:21.625Z,396.00
2023-07-09T03:56:21.683Z,412.00
2023-07-09T03:57:21.583Z,432.00
2023-07-09T03:58:21.616Z,448.00
2023-07-09T03:59:21.566Z,468.00
2023-07-09T04:00:21.606Z,480.00
2023-07-09T04:01:21.668Z,500.00
2023-07-09T04:02:21.566Z,520.00
2023-07-09T04:03:21.576Z,536.00
2023-07-09T04:04:22.032Z,552.00
2023-07-09T04:05:21.516Z,572.00
2023-07-09T04:06:21.513Z,588.00
2023-07-09T04:07:21.485Z,608.00
2023-07-09T04:08:21.487Z,628.00
2023-07-09T04:09:21.460Z,648.00
2023-07-09T04:10:21.465Z,668.00
2023-07-09T04:11:21.427Z,684.00
2023-07-09T04:12:21.440Z,704.00
2023-07-09T04:13:21.427Z,728.00
2023-07-09T04:14:21.462Z,744.00
2023-07-09T04:15:22.360Z,764.00
2023-07-09T04:16:22.279Z,788.00
2023-07-09T04:17:21.610Z,804.00
2023-07-09T04:18:21.394Z,828.00
2023-07-09T04:19:21.351Z,848.00
2023-07-09T04:20:21.372Z,872.00
2023-07-09T04:21:21.323Z,896.00
2023-07-09T04:22:21.325Z,916.00
2023-07-09T04:23:21.327Z,940.00
2023-07-09T04:24:21.288Z,960.00
2023-07-09T04:25:21.295Z,980.00
2023-07-09T04:26:21.262Z,1000.00
2023-07-09T04:27:21.277Z,1024.00
2023-07-09T04:28:21.242Z,1040.00
2023-07-09T04:29:21.254Z,1064.00
2023-07-09T04:30:21.217Z,1084.00
2023-07-09T04:31:21.272Z,1096.00
2023-07-09T04:32:21.280Z,1108.00
2023-07-09T04:33:21.301Z,1128.00
2023-07-09T04:34:21.172Z,1148.00
2023-07-09T04:35:21.191Z,1172.00
2023-07-09T04:36:21.143Z,1192.00
2023-07-09T04:37:21.900Z,1216.00
2023-07-09T04:38:21.532Z,1240.00
2023-07-09T04:39:21.149Z,1272.00
2023-07-09T04:40:21.111Z,1296.00
2023-07-09T04:41:21.112Z,1328.00
2023-07-09T04:42:21.080Z,1356.00
2023-07-09T04:43:21.099Z,1384.00
2023-07-09T04:44:21.064Z,1404.00
2023-07-09T04:45:21.089Z,1424.00
2023-07-09T04:46:21.096Z,1444.00
2023-07-09T04:47:21.187Z,1452.00
2023-07-09T04:48:21.013Z,1452.00
2023-07-09T04:49:21.078Z,1464.00
2023-07-09T04:50:20.994Z,1460.00
2023-07-09T04:51:21.006Z,1448.00
2023-07-09T04:52:20.973Z,1444.00
2023-07-09T04:53:20.989Z,1444.00
2023-07-09T04:54:21.026Z,1444.00
2023-07-09T04:55:20.979Z,1456.00
2023-07-09T04:56:20.961Z,1468.00
2023-07-09T04:57:20.955Z,1476.00
2023-07-09T04:58:20.913Z,1488.00
2023-07-09T04:59:21.086Z,1492.00
2023-07-09T05:00:20.886Z,1504.00
2023-07-09T05:01:20.940Z,1512.00
2023-07-09T05:02:20.922Z,1520.00
2023-07-09T05:03:20.932Z,1536.00
2023-07-09T05:04:22.367Z,1556.00
2023-07-09T05:05:20.984Z,1588.00
2023-07-09T05:06:20.813Z,1612.00
2023-07-09T05:07:20.838Z,1628.00
2023-07-09T05:08:20.797Z,1644.00
2023-07-09T05:09:20.809Z,1660.00
2023-07-09T05:10:20.771Z,1676.00
2023-07-09T05:11:20.790Z,1688.00
2023-07-09T05:12:20.746Z,1704.00
2023-07-09T05:13:20.767Z,1720.00
2023-07-09T05:14:20.729Z,1728.00
2023-07-09T05:15:20.763Z,1744.00
2023-07-09T05:16:21.211Z,1752.00
2023-07-09T05:17:21.076Z,1764.00
2023-07-09T05:18:21.694Z,1772.00
2023-07-09T05:19:20.729Z,1784.00
2023-07-09T05:20:20.679Z,1800.00
2023-07-09T05:21:20.713Z,1808.00
2023-07-09T05:22:20.638Z,1820.00
2023-07-09T05:23:20.658Z,1832.00
2023-07-09T05:24:20.620Z,1832.00
2023-07-09T05:25:20.626Z,1840.00
2023-07-09T05:26:20.599Z,1868.00
2023-07-09T05:27:20.710Z,1884.00
2023-07-09T05:28:20.563Z,1900.00
2023-07-09T05:29:20.571Z,1916.00
2023-07-09T05:30:20.546Z,1928.00
2023-07-09T05:31:20.630Z,1936.00
2023-07-09T05:32:20.572Z,1944.00
2023-07-09T05:33:20.540Z,1956.00
2023-07-09T05:34:20.509Z,1964.00
2023-07-09T05:35:20.516Z,1972.00
2023-07-09T05:36:20.490Z,1980.00
2023-07-09T05:37:20.522Z,1996.00
2023-07-09T05:38:21.293Z,2008.00
2023-07-09T05:39:20.497Z,2020.00
2023-07-09T05:40:20.443Z,2028.00
2023-07-09T05:41:20.452Z,2036.00
2023-07-09T05:42:20.442Z,2048.00
2023-07-09T05:43:20.439Z,2056.00
2023-07-09T05:44:20.395Z,2068.00
2023-07-09T05:45:20.393Z,2076.00
2023-07-09T05:46:20.438Z,2092.00
2023-07-09T05:47:20.429Z,2100.00
2023-07-09T05:48:20.328Z,2108.00
2023-07-09T05:49:20.364Z,2120.00
2023-07-09T05:50:20.314Z,2128.00
2023-07-09T05:51:20.321Z,2136.00
2023-07-09T05:52:20.297Z,2144.00
2023-07-09T05:53:20.300Z,2152.00
2023-07-09T05:54:20.263Z,2164.00
2023-07-09T05:55:20.279Z,2168.00
2023-07-09T05:56:20.248Z,2180.00
2023-07-09T05:57:20.267Z,2188.00
2023-07-09T05:58:20.225Z,2192.00
2023-07-09T05:59:21.066Z,2200.00
2023-07-09T06:00:20.251Z,2204.00
2023-07-09T06:01:20.371Z,2212.00
2023-07-09T06:02:20.276Z,2224.00
2023-07-09T06:03:20.314Z,2228.00
2023-07-09T06:04:20.210Z,2232.00
2023-07-09T06:05:20.999Z,2236.00
2023-07-09T06:06:20.187Z,2240.00
2023-07-09T06:07:20.157Z,2248.00
2023-07-09T06:08:20.135Z,2256.00
2023-07-09T06:09:20.127Z,2264.00
2023-07-09T06:10:20.099Z,2264.00
2023-07-09T06:11:20.114Z,2268.00
2023-07-09T06:12:20.083Z,2272.00
2023-07-09T06:13:20.113Z,2280.00
2023-07-09T06:14:20.065Z,2288.00
2023-07-09T06:15:20.076Z,2284.00
2023-07-09T06:16:20.626Z,2288.00
2023-07-09T06:17:20.050Z,2296.00
2023-07-09T06:18:20.059Z,2296.00
2023-07-09T06:19:20.053Z,2300.00
2023-07-09T06:20:20.076Z,2304.00
2023-07-09T06:21:20.023Z,2304.00
2023-07-09T06:22:19.983Z,2308.00
2023-07-09T06:23:20.002Z,2312.00
2023-07-09T06:24:19.956Z,2316.00
2023-07-09T06:25:19.973Z,2320.00
2023-07-09T06:26:19.927Z,2324.00
2023-07-09T06:27:20.350Z,2328.00
2023-07-09T06:28:19.903Z,2332.00
2023-07-09T06:29:19.906Z,2336.00
2023-07-09T06:30:19.902Z,2340.00
2023-07-09T06:31:20.056Z,2344.00
2023-07-09T06:32:19.921Z,2344.00
2023-07-09T06:33:19.879Z,2348.00
2023-07-09T06:34:20.484Z,2352.00
2023-07-09T06:35:19.848Z,2356.00
2023-07-09T06:36:19.815Z,2360.00
2023-07-09T06:37:19.825Z,2368.00
2023-07-09T06:38:19.901Z,2372.00
2023-07-09T06:39:19.978Z,2380.00
2023-07-09T06:40:20.715Z,2388.00
2023-07-09T06:41:19.828Z,2396.00
2023-07-09T06:42:19.762Z,2404.00
2023-07-09T06:43:19.799Z,2412.00
2023-07-09T06:44:19.731Z,2420.00
2023-07-09T06:45:19.747Z,2428.00
2023-07-09T06:46:19.789Z,2440.00
2023-07-09T06:47:19.726Z,2444.00
2023-07-09T06:48:19.693Z,2448.00
2023-07-09T06:49:19.723Z,2456.00
2023-07-09T06:50:19.705Z,2456.00
2023-07-09T06:51:19.687Z,2460.00
2023-07-09T06:52:19.655Z,2464.00
2023-07-09T06:53:19.671Z,2472.00
2023-07-09T06:54:19.614Z,2472.00
2023-07-09T06:55:19.632Z,2480.00
2023-07-09T06:56:19.598Z,2484.00
2023-07-09T06:57:19.624Z,2488.00
2023-07-09T06:58:19.606Z,2492.00
2023-07-09T06:59:20.432Z,2492.00
2023-07-09T07:00:19.574Z,2500.00
2023-07-09T07:01:21.442Z,2500.00
2023-07-09T07:02:19.623Z,2500.00
2023-07-09T07:03:19.711Z,2512.00
2023-07-09T07:04:19.504Z,2516.00
2023-07-09T07:05:19.520Z,2524.00
2023-07-09T07:06:19.475Z,2532.00
2023-07-09T07:07:19.499Z,2536.00
2023-07-09T07:08:19.465Z,2540.00
2023-07-09T07:09:19.469Z,2544.00
2023-07-09T07:10:19.433Z,2544.00
2023-07-09T07:11:19.608Z,2548.00
2023-07-09T07:12:19.419Z,2548.00
2023-07-09T07:13:19.438Z,2548.00
2023-07-09T07:14:19.490Z,2556.00
2023-07-09T07:15:19.407Z,2556.00
2023-07-09T07:16:19.374Z,2560.00
2023-07-09T07:17:19.638Z,2568.00
2023-07-09T07:18:19.343Z,2572.00
2023-07-09T07:19:19.371Z,2572.00
2023-07-09T07:20:20.148Z,2580.00
2023-07-09T07:21:20.113Z,2584.00
2023-07-09T07:22:19.338Z,2588.00
2023-07-09T07:23:19.327Z,2596.00
2023-07-09T07:24:19.292Z,2600.00
2023-07-09T07:25:19.328Z,2608.00
2023-07-09T07:26:19.290Z,2612.00
2023-07-09T07:27:19.338Z,2616.00
2023-07-09T07:28:19.257Z,2620.00
2023-07-09T07:29:19.268Z,2624.00
2023-07-09T07:30:19.218Z,2632.00
2023-07-09T07:31:19.288Z,2636.00
2023-07-09T07:32:19.237Z,2644.00
2023-07-09T07:33:19.226Z,2648.00
2023-07-09T07:34:19.203Z,2656.00
2023-07-09T07:35:19.208Z,2664.00
2023-07-09T07:37:19.189Z,2672.00
2023-07-09T07:38:19.127Z,2676.00
2023-07-09T07:39:19.187Z,2680.00
2023-07-09T07:40:19.227Z,2684.00
2023-07-09T07:41:19.144Z,2688.00
2023-07-09T07:42:19.880Z,2696.00
2023-07-09T07:43:19.113Z,2700.00
2023-07-09T07:44:19.106Z,2708.00
2023-07-09T07:45:19.093Z,2712.00
2023-07-09T07:46:19.096Z,2716.00
2023-07-09T07:47:19.109Z,2720.00
2023-07-09T07:48:19.047Z,2728.00
2023-07-09T07:49:19.068Z,2732.00
2023-07-09T07:50:19.012Z,2732.00
2023-07-09T07:51:19.020Z,2740.00
2023-07-09T07:52:18.975Z,2748.00
2023-07-09T07:53:19.002Z,2752.00
2023-07-09T07:54:18.996Z,2756.00
2023-07-09T07:55:20.483Z,2764.00
2023-07-09T07:56:18.997Z,2768.00
2023-07-09T07:57:18.943Z,2772.00
2023-07-09T07:58:18.919Z,2780.00
2023-07-09T07:59:18.923Z,2780.00
2023-07-09T08:00:18.906Z,2788.00
2023-07-09T08:01:19.756Z,2796.00
2023-07-09T08:02:19.669Z,2800.00
2023-07-09T08:03:18.903Z,2804.00
2023-07-09T08:04:18.906Z,2808.00
2023-07-09T08:05:18.877Z,2808.00
2023-07-09T08:06:18.837Z,2812.00
2023-07-09T08:07:19.666Z,2812.00
2023-07-09T08:08:18.831Z,2812.00
2023-07-09T08:09:18.833Z,2812.00
2023-07-09T08:10:18.805Z,2808.00
2023-07-09T08:11:18.801Z,2804.00
2023-07-09T08:12:18.763Z,2804.00
2023-07-09T08:13:18.797Z,2796.00
2023-07-09T08:14:18.794Z,2796.00
2023-07-09T08:15:18.755Z,2792.00
2023-07-09T08:16:19.459Z,2788.00
2023-07-09T08:17:18.734Z,2788.00
2023-07-09T08:18:18.794Z,2792.00
2023-07-09T08:19:18.785Z,2792.00
2023-07-09T08:20:18.686Z,2792.00
2023-07-09T08:21:18.696Z,2792.00
2023-07-09T08:22:18.683Z,2792.00
2023-07-09T08:23:19.076Z,2796.00
2023-07-09T08:24:18.664Z,2800.00
2023-07-09T08:25:18.668Z,2804.00
2023-07-09T08:26:18.621Z,2804.00
2023-07-09T08:27:18.621Z,2804.00
2023-07-09T08:28:18.899Z,2804.00
2023-07-09T08:29:18.614Z,2808.00
2023-07-09T08:30:18.570Z,2808.00
2023-07-09T08:31:18.609Z,2808.00
2023-07-09T08:32:18.560Z,2808.00
2023-07-09T08:33:18.558Z,2804.00
2023-07-09T08:34:18.526Z,2804.00
2023-07-09T08:36:18.496Z,2808.00
2023-07-09T08:37:18.521Z,2808.00
2023-07-09T08:38:18.485Z,2808.00
2023-07-09T08:39:19.284Z,2808.00
2023-07-09T08:40:18.565Z,2812.00
2023-07-09T08:41:18.459Z,2816.00
2023-07-09T08:42:18.496Z,2816.00
2023-07-09T08:43:18.458Z,2816.00
2023-07-09T08:44:18.605Z,2812.00
2023-07-09T08:45:18.416Z,2816.00
2023-07-09T08:46:18.482Z,2820.00
2023-07-09T08:47:18.426Z,2820.00
2023-07-09T08:48:18.445Z,2820.00
2023-07-09T08:49:18.379Z,2824.00
2023-07-09T08:50:18.403Z,2828.00
2023-07-09T08:51:18.360Z,2836.00
2023-07-09T08:52:18.360Z,2836.00
2023-07-09T08:53:18.338Z,2840.00
2023-07-09T08:54:18.357Z,2844.00
2023-07-09T08:55:18.319Z,2844.00
2023-07-09T08:56:18.335Z,2840.00
2023-07-09T08:57:18.295Z,2844.00
2023-07-09T08:58:18.299Z,2840.00
2023-07-09T08:59:18.274Z,2844.00
2023-07-09T09:00:18.285Z,2840.00
2023-07-09T09:01:18.315Z,2832.00
2023-07-09T09:02:18.291Z,2828.00
2023-07-09T09:03:18.457Z,2816.00
2023-07-09T09:04:18.326Z,2812.00
2023-07-09T09:05:18.217Z,2808.00
2023-07-09T09:06:18.212Z,2800.00
2023-07-09T09:07:18.199Z,2800.00
2023-07-09T09:08:18.189Z,2796.00
2023-07-09T09:09:18.169Z,2792.00
2023-07-09T09:10:18.178Z,2788.00
2023-07-09T09:11:18.166Z,2788.00
2023-07-09T09:12:18.173Z,2784.00
2023-07-09T09:13:18.151Z,2784.00
2023-07-09T09:14:18.150Z,2784.00
2023-07-09T09:15:18.103Z,2784.00
2023-07-09T09:16:18.144Z,2788.00
2023-07-09T09:17:18.083Z,2792.00
2023-07-09T09:18:18.082Z,2788.00
2023-07-09T09:19:18.055Z,2796.00
2023-07-09T09:20:18.093Z,2800.00
2023-07-09T09:21:18.016Z,2800.00
2023-07-09T09:22:18.051Z,2796.00
2023-07-09T09:23:18.889Z,2800.00
2023-07-09T09:24:18.371Z,2800.00
2023-07-09T09:25:18.001Z,2796.00
2023-07-09T09:26:18.018Z,2800.00
2023-07-09T09:27:17.965Z,2800.00
2023-07-09T09:28:17.979Z,2800.00
2023-07-09T09:29:17.994Z,2804.00
2023-07-09T09:30:17.982Z,2800.00
2023-07-09T09:31:17.998Z,2804.00
2023-07-09T09:32:17.944Z,2800.00
2023-07-09T09:33:17.953Z,2800.00
2023-07-09T09:34:17.926Z,2800.00
2023-07-09T09:35:17.885Z,2800.00
2023-07-09T09:36:17.901Z,2800.00
2023-07-09T09:37:17.866Z,2804.00
2023-07-09T09:38:17.865Z,2804.00
2023-07-09T09:39:17.833Z,2808.00
2023-07-09T09:40:18.376Z,2808.00
2023-07-09T09:41:17.819Z,2812.00
2023-07-09T09:42:17.851Z,2812.00
2023-07-09T09:43:17.790Z,2816.00
2023-07-09T09:44:18.085Z,2820.00
2023-07-09T09:45:18.107Z,2824.00
2023-07-09T09:46:17.769Z,2828.00
2023-07-09T09:47:17.811Z,2832.00
2023-07-09T09:48:17.834Z,2836.00
2023-07-09T09:49:17.737Z,2840.00
2023-07-09T09:50:17.730Z,2844.00
2023-07-09T09:51:17.701Z,2844.00
2023-07-09T09:52:17.702Z,2848.00
2023-07-09T09:53:17.685Z,2852.00
2023-07-09T09:54:17.688Z,2848.00
2023-07-09T09:55:17.680Z,2844.00
2023-07-09T09:56:17.686Z,2844.00
2023-07-09T09:57:17.633Z,2844.00
2023-07-09T09:58:17.647Z,2840.00
2023-07-09T09:59:17.602Z,2844.00
2023-07-09T10:00:17.684Z,2844.00
2023-07-09T10:01:17.640Z,2840.00
2023-07-09T10:02:17.644Z,2840.00
2023-07-09T10:03:17.670Z,2832.00
2023-07-09T10:04:17.647Z,2828.00
2023-07-09T10:05:17.579Z,2824.00
2023-07-09T10:06:17.562Z,2820.00
2023-07-09T10:07:17.525Z,2812.00
2023-07-09T10:08:17.547Z,2804.00
2023-07-09T10:09:17.506Z,2800.00
2023-07-09T10:10:17.510Z,2796.00
2023-07-09T10:11:17.488Z,2788.00
2023-07-09T10:12:17.500Z,2788.00
2023-07-09T10:13:17.469Z,2780.00
2023-07-09T10:14:17.477Z,2772.00
2023-07-09T10:15:17.444Z,2772.00
2023-07-09T10:16:17.463Z,2776.00
2023-07-09T10:17:17.460Z,2772.00
2023-07-09T10:18:17.659Z,2772.00
2023-07-09T10:19:17.399Z,2768.00
2023-07-09T10:20:17.425Z,2768.00
2023-07-09T10:21:17.384Z,2768.00
2023-07-09T10:22:17.402Z,2760.00
2023-07-09T10:23:17.413Z,2768.00
2023-07-09T10:24:17.449Z,2772.00
2023-07-09T10:25:17.354Z,2772.00
2023-07-09T10:26:17.642Z,2776.00
2023-07-09T10:27:17.318Z,2784.00
2023-07-09T10:28:17.343Z,2788.00
2023-07-09T10:29:17.325Z,2796.00
2023-07-09T10:30:23.805Z,2804.00
2023-07-09T10:31:18.325Z,2812.00
2023-07-09T10:32:17.320Z,2824.00
2023-07-09T10:33:17.269Z,2832.00
2023-07-09T10:34:17.363Z,2840.00
2023-07-09T10:35:17.234Z,2852.00
2023-07-09T10:36:17.261Z,2868.00
2023-07-09T10:37:19.603Z,2872.00
2023-07-09T10:38:17.314Z,2888.00
2023-07-09T10:39:17.192Z,2892.00
2023-07-09T10:40:17.273Z,2904.00
2023-07-09T10:41:26.709Z,2920.00
2023-07-09T10:42:18.174Z,2924.00
2023-07-09T10:43:17.149Z,2936.00
2023-07-09T10:44:17.182Z,2952.00
2023-07-09T10:45:17.933Z,2960.00
2023-07-09T10:46:17.207Z,2964.00
2023-07-09T10:47:17.224Z,2968.00
2023-07-09T10:48:17.182Z,2976.00
2023-07-09T10:49:17.115Z,2980.00
2023-07-09T10:50:17.145Z,2988.00
2023-07-09T10:51:17.078Z,2996.00
2023-07-09T10:52:17.092Z,3004.00
2023-07-09T10:53:17.147Z,3012.00
2023-07-09T10:54:17.180Z,3020.00
2023-07-09T10:55:17.099Z,3028.00
2023-07-09T10:56:17.071Z,3028.00
2023-07-09T10:57:17.082Z,3024.00
2023-07-09T10:58:17.022Z,3020.00
2023-07-09T10:59:16.984Z,3020.00
2023-07-09T11:00:17.005Z,3020.00
2023-07-09T11:01:17.179Z,3020.00
2023-07-09T11:02:17.364Z,3020.00
2023-07-09T11:03:17.056Z,3020.00
2023-07-09T11:04:17.076Z,3016.00
2023-07-09T11:05:17.800Z,3012.00
2023-07-09T11:06:16.946Z,3020.00
2023-07-09T11:07:16.914Z,3016.00
2023-07-09T11:08:16.963Z,3024.00
2023-07-09T11:09:16.917Z,3020.00
2023-07-09T11:10:17.086Z,3024.00
2023-07-09T11:11:17.016Z,3016.00
2023-07-09T11:12:16.877Z,3020.00
2023-07-09T11:13:16.876Z,3012.00
2023-07-09T11:14:16.859Z,3004.00
2023-07-09T11:15:16.817Z,2992.00
2023-07-09T11:16:16.943Z,2992.00
2023-07-09T11:17:16.893Z,2980.00
2023-07-09T11:18:16.862Z,2980.00
2023-07-09T11:19:16.781Z,2984.00
2023-07-09T11:20:16.862Z,2968.00
2023-07-09T11:21:16.789Z,2968.00
2023-07-09T11:22:16.783Z,2956.00
2023-07-09T11:23:16.745Z,2952.00
2023-07-09T11:24:16.750Z,2968.00
2023-07-09T11:25:16.830Z,2956.00
2023-07-09T11:26:16.856Z,2964.00
2023-07-09T11:27:16.804Z,2968.00
2023-07-09T11:28:16.725Z,2972.00
2023-07-09T11:29:16.678Z,2972.00
2023-07-09T11:30:16.692Z,2968.00
2023-07-09T11:31:16.757Z,2972.00
2023-07-09T11:32:16.817Z,2972.00
2023-07-09T11:33:25.156Z,2972.00
2023-07-09T11:34:17.646Z,2976.00
2023-07-09T11:35:16.630Z,2984.00
2023-07-09T11:36:16.645Z,2992.00
2023-07-09T11:37:16.594Z,3000.00
2023-07-09T11:38:16.598Z,3012.00
2023-07-09T11:39:16.580Z,3024.00
2023-07-09T11:40:16.615Z,3036.00
2023-07-09T11:41:16.770Z,3048.00
2023-07-09T11:42:16.571Z,3068.00
2023-07-09T11:43:16.565Z,3088.00
2023-07-09T11:44:17.177Z,3112.00
2023-07-09T11:45:16.501Z,3136.00
2023-07-09T11:46:17.353Z,3156.00
2023-07-09T11:47:17.238Z,3172.00
2023-07-09T11:48:16.533Z,3200.00
2023-07-09T11:49:16.482Z,3236.00
2023-07-09T11:50:19.247Z,3260.00
2023-07-09T11:51:16.507Z,3300.00
2023-07-09T11:52:16.485Z,3336.00
2023-07-09T11:53:16.438Z,3376.00
2023-07-09T11:54:16.457Z,3416.00
2023-07-09T11:55:16.503Z,3464.00
2023-07-09T11:56:16.894Z,3504.00
2023-07-09T11:57:16.550Z,3548.00
2023-07-09T11:58:16.420Z,3608.00
2023-07-09T11:59:16.382Z,3660.00
2023-07-09T12:00:16.516Z,3724.00
2023-07-09T12:01:16.370Z,3788.00
2023-07-09T12:02:16.533Z,3832.00
2023-07-09T12:03:16.474Z,3900.00
2023-07-09T12:04:16.507Z,3968.00
2023-07-09T12:05:16.337Z,4016.00
2023-07-09T12:06:16.584Z,4084.00
2023-07-09T12:07:17.102Z,4152.00
2023-07-09T12:08:17.013Z,4220.00
2023-07-09T12:09:16.288Z,4288.00
2023-07-09T12:10:16.360Z,4384.00
2023-07-09T12:11:16.258Z,4444.00
2023-07-09T12:12:16.286Z,4516.00
2023-07-09T12:13:16.379Z,4588.00
2023-07-09T12:14:16.310Z,4676.00
2023-07-09T12:15:16.209Z,4748.00
2023-07-09T12:16:16.237Z,4832.00
2023-07-09T12:17:16.199Z,4932.00
2023-07-09T12:18:16.233Z,5028.00
2023-07-09T12:19:16.171Z,5100.00
2023-07-09T12:20:16.367Z,5192.00
2023-07-09T12:21:16.145Z,5288.00
2023-07-09T12:22:16.163Z,5392.00
2023-07-09T12:23:16.162Z,5472.00
2023-07-09T12:24:16.319Z,5536.00
2023-07-09T12:25:16.190Z,5576.00
2023-07-09T12:26:16.133Z,5604.00
2023-07-09T12:27:16.143Z,5628.00